Time;durP1;ratioP1;P1;durP2;ratioP2;P2;SDS_P1;SDS_P2;PMS_P1;PMS_P2;Temp;Humidity;BMP_temperature;BMP_pressure;BME280_temperature;BME280_humidity;BME280_pressure;Samples;Min_cycle;Max_cycle;Signal;HPM_P1;HPM_P2
2023/11/18 00:02:25;;;;;;;28.25;13.00;;;;;;;;;;5012864;28;20084;-71
2023/11/18 00:04:52;;;;;;;22.38;9.45;;;;;;;;;;4994016;28;20054;-68
2023/11/18 00:07:19;;;;;;;24.13;9.00;;;;;;;;;;5016707;28;20058;-69
2023/11/18 00:09:46;;;;;;;24.95;8.50;;;;;;;;;;5018922;28;20053;-69
2023/11/18 00:12:14;;;;;;;21.98;9.20;;;;;;;;;;4990887;28;20058;-68
2023/11/18 00:14:42;;;;;;;24.92;9.07;;;;;;;;;;4994986;28;20065;-67
2023/11/18 00:17:09;;;;;;;21.17;9.15;;;;;;;;;;4971545;28;20105;-68
2023/11/18 00:19:36;;;;;;;20.00;8.18;;;;;;;;;;4984664;28;20046;-67
2023/11/18 00:22:06;;;;;;;21.27;8.32;;;;;;;;;;4974026;28;20054;-67
2023/11/18 00:24:34;;;;;;;20.15;8.15;;;;;;;;;;4981178;28;20058;-67
2023/11/18 00:27:05;;;;;;;21.10;8.38;;;;;;;;;;4979266;28;20088;-67
2023/11/18 00:29:34;;;;;;;18.98;7.75;;;;;;;;;;4985913;28;20050;-67
2023/11/18 00:32:01;;;;;;;21.90;8.88;;;;;;;;;;4965962;28;20142;-67
2023/11/18 00:34:29;;;;;;;23.77;9.45;;;;;;;;;;4960545;28;21733;-67
2023/11/18 00:36:57;;;;;;;18.55;8.32;;;;;;;;;;4986425;28;20062;-67
2023/11/18 00:39:23;;;;;;;28.13;11.63;;;;;;;;;;5001192;28;20061;-68
2023/11/18 00:41:50;;;;;;;33.42;14.30;;;;;;;;;;4984777;28;20058;-68
2023/11/18 00:44:17;;;;;;;27.35;12.27;;;;;;;;;;4975569;28;20081;-67
2023/11/18 00:46:46;;;;;;;24.08;9.07;;;;;;;;;;4983795;28;20069;-67
2023/11/18 00:49:12;;;;;;;27.77;10.88;;;;;;;;;;4983256;28;20061;-67
2023/11/18 00:51:39;;;;;;;19.02;8.50;;;;;;;;;;4983759;28;20124;-69
2023/11/18 00:54:06;;;;;;;23.23;9.30;;;;;;;;;;4981947;28;20055;-69
2023/11/18 00:56:33;;;;;;;21.08;9.05;;;;;;;;;;4988171;28;20129;-68
2023/11/18 00:59:01;;;;;;;21.83;9.27;;;;;;;;;;4984183;28;20058;-68
2023/11/18 01:01:27;;;;;;;22.10;8.35;;;;;;;;;;5012070;28;20101;-69
2023/11/18 01:03:59;;;;;;;21.75;8.80;;;;;;;;;;4962559;28;20057;-69
2023/11/18 01:06:26;;;;;;;21.73;8.98;;;;;;;;;;4970296;28;20256;-69
2023/11/18 01:08:52;;;;;;;22.58;8.45;;;;;;;;;;4995654;28;20042;-69
2023/11/18 01:11:22;;;;;;;20.40;8.52;;;;;;;;;;4977076;28;20097;-69
2023/11/18 01:13:49;;;;;;;24.70;8.60;;;;;;;;;;4965359;28;20046;-69
2023/11/18 01:16:15;;;;;;;16.92;7.63;;;;;;;;;;4994418;28;20070;-68
2023/11/18 01:18:42;;;;;;;24.13;8.63;;;;;;;;;;4978797;28;20074;-69
2023/11/18 01:21:11;;;;;;;23.02;8.38;;;;;;;;;;4965642;28;20059;-69
2023/11/18 01:23:38;;;;;;;20.10;8.13;;;;;;;;;;4979277;28;20162;-67
2023/11/18 01:26:08;;;;;;;21.00;8.07;;;;;;;;;;4998082;28;20050;-67
2023/11/18 01:28:36;;;;;;;25.95;9.13;;;;;;;;;;4966271;28;20074;-67
2023/11/18 01:31:04;;;;;;;20.38;7.40;;;;;;;;;;4991887;28;20038;-67
2023/11/18 01:33:32;;;;;;;23.25;7.68;;;;;;;;;;4982864;28;20062;-67
2023/11/18 01:35:59;;;;;;;21.48;8.40;;;;;;;;;;4981545;28;20046;-68
2023/11/18 01:38:27;;;;;;;23.63;8.85;;;;;;;;;;4980560;28;20085;-66
2023/11/18 01:40:54;;;;;;;21.67;8.25;;;;;;;;;;4994338;28;20299;-67
2023/11/18 01:43:22;;;;;;;20.92;8.70;;;;;;;;;;4995383;28;20062;-68
2023/11/18 01:45:49;;;;;;;24.92;7.65;;;;;;;;;;4979694;28;20646;-66
2023/11/18 01:48:17;;;;;;;25.83;8.88;;;;;;;;;;4991199;28;20185;-67
2023/11/18 01:50:44;;;;;;;23.00;8.98;;;;;;;;;;5032716;28;20054;-67
2023/11/18 01:53:13;;;;;;;23.73;9.07;;;;;;;;;;4984820;28;20062;-67
2023/11/18 01:55:42;;;;;;;22.25;8.63;;;;;;;;;;4985127;28;20081;-67
2023/11/18 01:58:10;;;;;;;19.88;7.03;;;;;;;;;;4981429;28;20070;-67
2023/11/18 02:00:38;;;;;;;;;;;;;;;;;;4999407;28;20056;-66
2023/11/18 02:03:05;;;;;;;19.92;7.35;;;;;;;;;;5019100;28;19972;-66
2023/11/18 02:05:34;;;;;;;26.80;9.70;;;;;;;;;;4996804;28;20053;-68
2023/11/18 02:08:02;;;;;;;;;;;;;;;;;;4998717;28;20140;-66
2023/11/18 02:10:31;;;;;;;18.40;7.80;;;;;;;;;;4994003;28;19935;-67
2023/11/18 02:13:07;;;;;;;23.70;8.77;;;;;;;;;;4978749;28;20061;-68
2023/11/18 02:15:35;;;;;;;21.00;8.48;;;;;;;;;;4993241;28;20054;-68
2023/11/18 02:18:09;;;;;;;20.55;8.40;;;;;;;;;;4982591;28;20053;-68
2023/11/18 02:20:36;;;;;;;22.50;9.00;;;;;;;;;;4995271;28;20057;-68
2023/11/18 02:23:03;;;;;;;22.02;8.27;;;;;;;;;;4968288;28;20058;-67
2023/11/18 02:25:34;;;;;;;24.88;9.70;;;;;;;;;;4975997;28;20090;-67
2023/11/18 02:28:02;;;;;;;23.80;9.00;;;;;;;;;;4980448;28;20132;-67
2023/11/18 02:30:30;;;;;;;24.95;9.77;;;;;;;;;;5004784;28;20054;-67
2023/11/18 02:33:05;;;;;;;22.95;8.95;;;;;;;;;;4983265;28;20058;-66
2023/11/18 02:35:37;;;;;;;23.50;9.57;;;;;;;;;;4983751;28;20053;-67
2023/11/18 02:38:07;;;;;;;21.90;8.73;;;;;;;;;;4980184;28;20056;-67
2023/11/18 02:40:37;;;;;;;22.33;9.20;;;;;;;;;;4985943;28;20141;-67
2023/11/18 02:43:06;;;;;;;25.02;9.23;;;;;;;;;;4989998;28;20113;-66
2023/11/18 02:45:36;;;;;;;26.00;8.85;;;;;;;;;;4990759;28;20112;-67
2023/11/18 02:48:04;;;;;;;29.10;10.88;;;;;;;;;;4966460;28;20047;-67
2023/11/18 02:50:35;;;;;;;26.75;10.35;;;;;;;;;;4970241;28;20057;-66
2023/11/18 02:53:02;;;;;;;24.55;10.63;;;;;;;;;;4964673;28;20055;-67
2023/11/18 02:55:29;;;;;;;25.83;9.35;;;;;;;;;;4982201;28;20081;-67
2023/11/18 02:57:56;;;;;;;33.47;10.90;;;;;;;;;;4989700;28;20112;-69
2023/11/18 03:00:25;;;;;;;24.17;9.17;;;;;;;;;;4992547;28;20072;-67
2023/11/18 03:02:52;;;;;;;23.40;9.27;;;;;;;;;;4984340;28;20050;-67
2023/11/18 03:05:19;;;;;;;21.20;9.02;;;;;;;;;;4926640;28;20058;-67
2023/11/18 03:07:49;;;;;;;26.30;9.23;;;;;;;;;;4962344;28;20181;-67
2023/11/18 03:10:20;;;;;;;28.25;9.60;;;;;;;;;;4956135;28;20055;-68
2023/11/18 03:12:47;;;;;;;28.08;10.30;;;;;;;;;;4962434;28;20051;-67
2023/11/18 03:15:16;;;;;;;29.20;10.13;;;;;;;;;;4958464;28;20059;-66
2023/11/18 03:17:45;;;;;;;;;;;;;;;;;;4969327;28;20062;-67
2023/11/18 03:20:16;;;;;;;22.48;7.65;;;;;;;;;;4995015;28;20283;-67
2023/11/18 03:22:44;;;;;;;28.13;10.35;;;;;;;;;;4974099;28;20062;-67
2023/11/18 03:25:11;;;;;;;26.08;9.57;;;;;;;;;;4978364;28;20074;-67
2023/11/18 03:27:38;;;;;;;32.33;10.95;;;;;;;;;;4969846;28;20043;-67
2023/11/18 03:30:07;;;;;;;31.33;10.70;;;;;;;;;;4966813;28;20286;-67
2023/11/18 03:32:35;;;;;;;27.48;9.57;;;;;;;;;;4964792;28;20050;-67
2023/11/18 03:35:04;;;;;;;29.38;11.18;;;;;;;;;;4986018;28;20104;-67
2023/11/18 03:37:31;;;;;;;23.50;10.07;;;;;;;;;;4988230;28;20055;-67
2023/11/18 03:39:58;;;;;;;29.85;10.50;;;;;;;;;;4986189;28;20049;-67
2023/11/18 03:42:24;;;;;;;26.98;9.50;;;;;;;;;;4985077;28;20066;-67
2023/11/18 03:44:51;;;;;;;24.05;10.25;;;;;;;;;;4969050;28;20055;-67
2023/11/18 03:47:18;;;;;;;28.80;10.75;;;;;;;;;;4969000;28;20056;-67
2023/11/18 03:49:45;;;;;;;26.02;9.88;;;;;;;;;;4981806;28;20066;-65
2023/11/18 03:52:13;;;;;;;29.90;11.18;;;;;;;;;;4968284;28;20054;-68
2023/11/18 03:54:40;;;;;;;28.98;10.40;;;;;;;;;;4975808;28;20059;-69
2023/11/18 03:57:06;;;;;;;28.13;10.25;;;;;;;;;;4966813;28;20050;-69
2023/11/18 03:59:33;;;;;;;27.20;10.18;;;;;;;;;;4968926;28;20365;-69
2023/11/18 04:02:00;;;;;;;26.23;10.13;;;;;;;;;;4980207;28;20102;-69
2023/11/18 04:04:27;;;;;;;25.13;10.13;;;;;;;;;;4968496;28;20085;-69
2023/11/18 04:06:54;;;;;;;24.20;10.17;;;;;;;;;;4977128;28;20048;-69
2023/11/18 04:09:22;;;;;;;27.27;10.88;;;;;;;;;;4969422;28;20051;-67
2023/11/18 04:11:49;;;;;;;25.92;10.40;;;;;;;;;;5013403;28;20043;-66
2023/11/18 04:14:16;;;;;;;22.02;8.70;;;;;;;;;;4960997;28;20073;-68
2023/11/18 04:16:45;;;;;;;25.67;10.10;;;;;;;;;;4986586;28;20049;-67
2023/11/18 04:19:13;;;;;;;26.17;10.10;;;;;;;;;;4985968;28;20130;-66
2023/11/18 04:21:39;;;;;;;24.02;9.98;;;;;;;;;;5003285;28;20065;-66
2023/11/18 04:24:07;;;;;;;29.90;10.75;;;;;;;;;;4981556;28;20181;-67
2023/11/18 04:26:35;;;;;;;27.30;10.07;;;;;;;;;;4995671;28;20069;-68
2023/11/18 04:29:02;;;;;;;27.67;10.55;;;;;;;;;;4991302;28;20054;-69
2023/11/18 04:31:29;;;;;;;25.92;9.45;;;;;;;;;;5006508;28;20057;-69
2023/11/18 04:33:56;;;;;;;30.60;10.63;;;;;;;;;;4958907;28;20051;-70
2023/11/18 04:36:23;;;;;;;26.08;9.88;;;;;;;;;;4941936;28;20055;-69
2023/11/18 04:38:50;;;;;;;26.00;11.65;;;;;;;;;;4971506;28;20064;-70
2023/11/18 04:41:16;;;;;;;28.35;10.63;;;;;;;;;;4985706;28;20046;-67
2023/11/18 04:43:45;;;;;;;27.85;10.40;;;;;;;;;;4960400;28;20055;-67
2023/11/18 04:46:13;;;;;;;30.85;10.10;;;;;;;;;;4962602;28;20118;-68
2023/11/18 04:48:40;;;;;;;22.73;9.40;;;;;;;;;;4977725;28;20050;-67
2023/11/18 04:51:07;;;;;;;25.00;10.13;;;;;;;;;;4980592;28;20059;-68
2023/11/18 04:53:34;;;;;;;25.02;9.75;;;;;;;;;;4962011;28;20058;-68
2023/11/18 04:56:00;;;;;;;24.73;10.40;;;;;;;;;;4983534;28;20097;-67
2023/11/18 04:58:27;;;;;;;26.85;11.15;;;;;;;;;;4999662;28;20045;-66
2023/11/18 05:00:56;;;;;;;22.10;9.02;;;;;;;;;;5030634;28;20050;-67
2023/11/18 05:03:24;;;;;;;;;;;;;;;;;;4984621;28;20066;-67
2023/11/18 05:05:50;;;;;;;22.75;8.50;;;;;;;;;;4979059;28;19925;-68
2023/11/18 05:08:21;;;;;;;27.20;9.65;;;;;;;;;;4962082;28;20055;-68
2023/11/18 05:10:48;;;;;;;24.15;9.38;;;;;;;;;;4961618;28;20101;-67
2023/11/18 05:13:16;;;;;;;24.45;9.50;;;;;;;;;;4968045;28;20058;-68
2023/11/18 05:15:45;;;;;;;27.88;9.60;;;;;;;;;;4998308;28;20081;-67
2023/11/18 05:18:14;;;;;;;27.13;9.60;;;;;;;;;;4981563;28;20054;-68
2023/11/18 05:20:41;;;;;;;29.25;9.88;;;;;;;;;;4996127;28;20132;-66
2023/11/18 05:23:10;;;;;;;27.33;9.52;;;;;;;;;;4994810;28;20061;-67
2023/11/18 05:25:37;;;;;;;24.70;9.80;;;;;;;;;;4961749;28;20118;-66
2023/11/18 05:28:04;;;;;;;22.75;8.30;;;;;;;;;;4963531;28;20098;-67
2023/11/18 05:30:32;;;;;;;24.13;9.63;;;;;;;;;;4993634;28;20066;-66
2023/11/18 05:32:59;;;;;;;21.83;9.25;;;;;;;;;;4979599;28;20050;-66
2023/11/18 05:35:28;;;;;;;21.13;8.30;;;;;;;;;;4975920;28;20042;-67
2023/11/18 05:37:55;;;;;;;23.83;8.73;;;;;;;;;;4983586;28;20043;-67
2023/11/18 05:40:22;;;;;;;26.23;9.38;;;;;;;;;;4978609;28;20043;-67
2023/11/18 05:42:51;;;;;;;20.27;8.75;;;;;;;;;;4980905;28;20046;-67
2023/11/18 05:45:27;;;;;;;18.67;7.78;;;;;;;;;;4977132;28;20057;-67
2023/11/18 05:47:55;;;;;;;21.05;8.07;;;;;;;;;;4992462;28;20062;-67
2023/11/18 05:50:24;;;;;;;24.13;8.43;;;;;;;;;;4977177;28;20060;-67
2023/11/18 05:52:54;;;;;;;26.42;8.50;;;;;;;;;;4975455;28;20046;-66
2023/11/18 05:55:21;;;;;;;17.40;7.90;;;;;;;;;;4982090;28;20133;-68
2023/11/18 05:57:48;;;;;;;19.90;7.53;;;;;;;;;;5008814;28;20042;-67
2023/11/18 06:00:19;;;;;;;23.52;8.70;;;;;;;;;;4972099;28;20054;-68
2023/11/18 06:02:45;;;;;;;21.92;8.38;;;;;;;;;;4984263;28;20130;-67
2023/11/18 06:05:15;;;;;;;22.85;8.40;;;;;;;;;;4972247;28;20477;-67
2023/11/18 06:07:43;;;;;;;22.40;8.00;;;;;;;;;;4997113;28;20038;-67
2023/11/18 06:10:12;;;;;;;25.13;8.95;;;;;;;;;;4968120;28;20079;-68
2023/11/18 06:12:40;;;;;;;18.42;8.00;;;;;;;;;;4971468;28;20055;-67
2023/11/18 06:15:10;;;;;;;18.02;7.22;;;;;;;;;;4970915;28;20058;-66
2023/11/18 06:17:37;;;;;;;19.85;7.97;;;;;;;;;;4982185;28;20085;-67
2023/11/18 06:20:14;;;;;;;20.75;7.88;;;;;;;;;;4993396;28;20058;-67
2023/11/18 06:22:40;;;;;;;20.15;7.38;;;;;;;;;;5002213;28;20057;-67
2023/11/18 06:25:08;;;;;;;19.38;8.52;;;;;;;;;;4979435;28;20182;-67
2023/11/18 06:27:36;;;;;;;19.70;8.00;;;;;;;;;;4985265;28;20145;-67
2023/11/18 06:30:06;;;;;;;21.17;7.45;;;;;;;;;;4979673;28;20337;-67
2023/11/18 06:32:33;;;;;;;20.67;7.20;;;;;;;;;;4976587;28;20152;-67
2023/11/18 06:35:01;;;;;;;23.95;8.13;;;;;;;;;;4979472;28;20066;-68
2023/11/18 06:37:33;;;;;;;19.17;8.02;;;;;;;;;;4981196;28;20145;-67
2023/11/18 06:40:00;;;;;;;17.48;7.40;;;;;;;;;;4962035;28;20117;-67
2023/11/18 06:42:27;;;;;;;22.05;8.43;;;;;;;;;;4959967;28;20051;-67
2023/11/18 06:44:55;;;;;;;18.00;7.63;;;;;;;;;;4979832;28;20080;-67
2023/11/18 06:47:22;;;;;;;23.08;9.63;;;;;;;;;;4996906;28;20073;-67
2023/11/18 06:49:52;;;;;;;19.00;6.97;;;;;;;;;;4995768;28;20117;-68
2023/11/18 06:52:18;;;;;;;25.05;8.48;;;;;;;;;;4985543;28;20164;-68
2023/11/18 06:54:45;;;;;;;18.73;8.18;;;;;;;;;;4980085;28;20161;-68
2023/11/18 06:57:12;;;;;;;22.40;8.07;;;;;;;;;;4964041;28;20059;-67
2023/11/18 06:59:39;;;;;;;13.95;6.88;;;;;;;;;;4966411;28;20486;-68
2023/11/18 07:02:08;;;;;;;15.38;6.85;;;;;;;;;;4965718;28;20137;-68
2023/11/18 07:04:38;;;;;;;18.88;7.35;;;;;;;;;;4969573;28;20047;-67
2023/11/18 07:07:08;;;;;;;16.13;7.18;;;;;;;;;;4968335;28;20058;-68
2023/11/18 07:09:35;;;;;;;16.35;6.70;;;;;;;;;;4969482;28;20047;-68
2023/11/18 07:12:03;;;;;;;16.35;6.57;;;;;;;;;;4980964;28;20069;-68
2023/11/18 07:14:30;;;;;;;15.02;6.88;;;;;;;;;;4955537;28;20155;-69
2023/11/18 07:16:57;;;;;;;16.52;6.95;;;;;;;;;;4978325;28;20047;-67
2023/11/18 07:19:25;;;;;;;15.68;6.53;;;;;;;;;;4994501;28;20046;-67
2023/11/18 07:21:52;;;;;;;17.58;6.30;;;;;;;;;;4982539;28;20047;-67
2023/11/18 07:24:19;;;;;;;20.02;7.43;;;;;;;;;;4969950;28;20070;-66
2023/11/18 07:26:46;;;;;;;15.55;6.97;;;;;;;;;;4969472;28;20069;-67
2023/11/18 07:29:13;;;;;;;16.85;7.40;;;;;;;;;;4967285;28;20042;-67
2023/11/18 07:31:40;;;;;;;14.70;6.20;;;;;;;;;;4967785;28;20051;-67
2023/11/18 07:34:07;;;;;;;14.95;6.30;;;;;;;;;;4977287;28;20069;-68
2023/11/18 07:36:35;;;;;;;18.35;7.03;;;;;;;;;;4982243;28;20066;-67
2023/11/18 07:39:03;;;;;;;15.52;6.05;;;;;;;;;;4976384;28;20490;-68
2023/11/18 07:41:31;;;;;;;17.02;6.28;;;;;;;;;;4966252;28;20066;-67
2023/11/18 07:43:58;;;;;;;15.93;7.15;;;;;;;;;;4965208;28;20051;-67
2023/11/18 07:46:26;;;;;;;13.23;6.10;;;;;;;;;;4977557;28;20055;-67
2023/11/18 07:48:53;;;;;;;13.77;6.20;;;;;;;;;;4967204;28;20060;-67
2023/11/18 07:51:21;;;;;;;12.80;6.18;;;;;;;;;;5009155;28;20069;-68
2023/11/18 07:53:50;;;;;;;12.63;5.47;;;;;;;;;;4972271;28;20065;-67
2023/11/18 07:56:17;;;;;;;16.85;6.50;;;;;;;;;;4958782;28;20053;-69
2023/11/18 07:58:45;;;;;;;14.05;6.57;;;;;;;;;;4981783;28;20051;-67
2023/11/18 08:01:12;;;;;;;13.10;5.57;;;;;;;;;;4976770;28;20058;-67
2023/11/18 08:03:42;;;;;;;19.33;5.85;;;;;;;;;;4979953;28;20073;-69
2023/11/18 08:06:10;;;;;;;18.77;6.82;;;;;;;;;;5000409;28;20054;-68
2023/11/18 08:08:37;;;;;;;12.05;5.55;;;;;;;;;;4996188;28;20163;-66
2023/11/18 08:11:06;;;;;;;11.37;5.30;;;;;;;;;;4983769;28;20145;-67
2023/11/18 08:13:33;;;;;;;12.85;5.97;;;;;;;;;;4993324;28;20069;-67
2023/11/18 08:16:00;;;;;;;14.65;6.38;;;;;;;;;;4981465;28;20042;-67
2023/11/18 08:18:30;;;;;;;12.98;6.05;;;;;;;;;;4961251;28;20071;-67
2023/11/18 08:20:59;;;;;;;13.65;6.18;;;;;;;;;;4963988;28;20051;-67
2023/11/18 08:23:27;;;;;;;16.50;6.38;;;;;;;;;;4960499;28;20065;-69
2023/11/18 08:25:54;;;;;;;16.17;6.72;;;;;;;;;;4966498;28;20109;-67
2023/11/18 08:28:22;;;;;;;13.90;5.70;;;;;;;;;;4977861;28;20057;-67
2023/11/18 08:30:51;;;;;;;15.27;5.90;;;;;;;;;;5001694;28;20121;-67
2023/11/18 08:33:18;;;;;;;16.17;5.80;;;;;;;;;;4997541;28;20074;-68
2023/11/18 08:35:46;;;;;;;14.63;6.18;;;;;;;;;;4966868;28;20066;-67
2023/11/18 08:38:13;;;;;;;15.80;7.00;;;;;;;;;;4962031;28;20281;-68
2023/11/18 08:40:40;;;;;;;12.65;5.60;;;;;;;;;;4967996;28;20089;-68
2023/11/18 08:43:07;;;;;;;13.80;5.75;;;;;;;;;;4968004;28;20124;-68
2023/11/18 08:45:37;;;;;;;12.90;5.68;;;;;;;;;;4987572;28;20137;-69
2023/11/18 08:48:07;;;;;;;17.70;5.78;;;;;;;;;;4984067;28;20058;-68
2023/11/18 08:50:40;;;;;;;14.45;6.25;;;;;;;;;;4964208;28;20055;-67
2023/11/18 08:53:09;;;;;;;20.70;6.13;;;;;;;;;;4964380;28;20055;-69
2023/11/18 08:55:50;;;;;;;12.38;5.10;;;;;;;;;;4970519;28;20050;-67
2023/11/18 08:58:19;;;;;;;21.00;5.47;;;;;;;;;;5011372;28;20051;-68
2023/11/18 09:00:53;;;;;;;11.32;5.15;;;;;;;;;;5002930;28;20057;-67
2023/11/18 09:03:27;;;;;;;10.60;4.55;;;;;;;;;;4962882;28;20058;-67
2023/11/18 09:05:59;;;;;;;13.50;4.57;;;;;;;;;;4960492;28;20047;-67
2023/11/18 09:08:26;;;;;;;12.43;3.65;;;;;;;;;;4975584;28;20204;-67
2023/11/18 09:10:54;;;;;;;9.87;4.30;;;;;;;;;;4966237;28;20063;-68
2023/11/18 09:13:22;;;;;;;10.07;4.30;;;;;;;;;;4980252;28;20055;-68
2023/11/18 09:15:51;;;;;;;12.02;5.05;;;;;;;;;;4997639;28;20064;-68
2023/11/18 09:18:19;;;;;;;17.05;5.35;;;;;;;;;;4980801;28;20084;-68
2023/11/18 09:20:47;;;;;;;14.27;4.95;;;;;;;;;;4982121;28;20151;-69
2023/11/18 09:23:15;;;;;;;16.08;5.30;;;;;;;;;;4978707;28;20062;-68
2023/11/18 09:25:46;;;;;;;14.13;4.70;;;;;;;;;;4988717;28;20133;-67
2023/11/18 09:28:14;;;;;;;13.50;5.07;;;;;;;;;;4993142;28;20153;-69
2023/11/18 09:30:49;;;;;;;12.40;4.40;;;;;;;;;;4979499;28;20062;-70
2023/11/18 09:33:25;;;;;;;10.88;4.60;;;;;;;;;;4977425;28;20060;-67
2023/11/18 09:35:58;;;;;;;10.27;4.28;;;;;;;;;;4978649;28;20073;-66
2023/11/18 09:38:27;;;;;;;11.15;4.20;;;;;;;;;;4989093;28;20250;-68
2023/11/18 09:40:55;;;;;;;11.48;4.85;;;;;;;;;;4997736;28;20045;-68
2023/11/18 09:43:23;;;;;;;11.43;4.82;;;;;;;;;;4995759;28;20206;-68
2023/11/18 09:45:59;;;;;;;13.60;4.35;;;;;;;;;;4978716;28;20054;-68
2023/11/18 09:48:27;;;;;;;13.95;4.03;;;;;;;;;;4997912;28;20054;-68
2023/11/18 09:50:54;;;;;;;10.88;4.38;;;;;;;;;;4987651;28;20065;-69
2023/11/18 09:53:25;;;;;;;8.60;4.03;;;;;;;;;;5016244;28;20100;-68
2023/11/18 09:55:59;;;;;;;11.32;4.70;;;;;;;;;;4956114;28;20149;-68
2023/11/18 09:58:34;;;;;;;9.43;3.80;;;;;;;;;;4970636;28;20113;-68
2023/11/18 10:01:04;;;;;;;10.68;4.85;;;;;;;;;;4993571;28;20516;-68
2023/11/18 10:03:35;;;;;;;11.15;4.20;;;;;;;;;;4958435;28;20054;-69
2023/11/18 10:06:06;;;;;;;10.15;4.45;;;;;;;;;;4978221;28;20163;-67
2023/11/18 10:08:33;;;;;;;12.00;3.67;;;;;;;;;;5022322;28;20080;-69
2023/11/18 10:11:08;;;;;;;10.48;4.25;;;;;;;;;;4984764;28;20050;-68
2023/11/18 10:13:40;;;;;;;13.60;4.55;;;;;;;;;;4979740;28;20057;-69
2023/11/18 10:16:08;;;;;;;10.38;3.15;;;;;;;;;;4976281;28;20070;-69
2023/11/18 10:18:48;;;;;;;15.98;4.20;;;;;;;;;;4978556;28;20056;-70
2023/11/18 10:21:18;;;;;;;11.90;4.15;;;;;;;;;;4961145;28;20071;-67
2023/11/18 10:23:59;;;;;;;10.35;4.07;;;;;;;;;;4943192;28;20047;-69
2023/11/18 10:26:26;;;;;;;10.88;3.85;;;;;;;;;;4998507;28;20135;-69
2023/11/18 10:28:53;;;;;;;10.25;3.63;;;;;;;;;;4996737;28;20058;-69
2023/11/18 10:31:20;;;;;;;13.55;3.97;;;;;;;;;;4974921;28;20113;-70
2023/11/18 10:33:51;;;;;;;11.43;4.38;;;;;;;;;;5006118;28;20054;-69
2023/11/18 10:36:23;;;;;;;15.48;5.30;;;;;;;;;;4971602;28;20062;-68
2023/11/18 10:38:51;;;;;;;13.88;4.00;;;;;;;;;;4979025;28;20137;-69
2023/11/18 10:41:20;;;;;;;8.55;3.80;;;;;;;;;;4981695;28;20165;-70
2023/11/18 10:43:48;;;;;;;;;;;;;;;;;;4971915;28;20109;-70
2023/11/18 10:46:16;;;;;;;8.48;4.00;;;;;;;;;;4965775;28;19925;-72
2023/11/18 10:48:44;;;;;;;13.32;4.45;;;;;;;;;;4979877;28;20050;-71
2023/11/18 10:51:15;;;;;;;9.43;3.90;;;;;;;;;;4958598;28;20076;-69
2023/11/18 10:53:53;;;;;;;8.25;3.65;;;;;;;;;;4954729;28;20558;-70
2023/11/18 10:56:26;;;;;;;7.93;3.28;;;;;;;;;;4956046;28;20055;-71
2023/11/18 10:58:54;;;;;;;9.52;3.60;;;;;;;;;;4959996;28;20125;-72
2023/11/18 11:01:32;;;;;;;7.97;3.30;;;;;;;;;;5008321;28;20198;-70
2023/11/18 11:03:59;;;;;;;11.50;3.30;;;;;;;;;;4973078;28;20203;-70
2023/11/18 11:06:30;;;;;;;9.27;3.42;;;;;;;;;;4954267;28;20062;-70
2023/11/18 11:08:58;;;;;;;8.02;3.45;;;;;;;;;;4973695;28;20110;-72
2023/11/18 11:11:26;;;;;;;8.25;3.50;;;;;;;;;;4963871;28;20050;-71
2023/11/18 11:13:57;;;;;;;7.18;3.53;;;;;;;;;;4972387;28;20248;-71
2023/11/18 11:16:33;;;;;;;8.20;3.22;;;;;;;;;;4949986;28;20050;-71
2023/11/18 11:19:08;;;;;;;10.85;3.40;;;;;;;;;;4969877;28;20054;-72
2023/11/18 11:21:47;;;;;;;7.78;3.05;;;;;;;;;;4977456;28;20072;-71
2023/11/18 11:24:23;;;;;;;;;;;;;;;;;;4984874;28;20056;-69
2023/11/18 11:27:04;;;;;;;8.00;3.22;;;;;;;;;;4996137;28;20024;-71
2023/11/18 11:29:37;;;;;;;12.95;3.95;;;;;;;;;;4987001;28;20050;-69
2023/11/18 11:32:16;;;;;;;12.02;3.50;;;;;;;;;;4983822;28;20054;-69
2023/11/18 11:34:53;;;;;;;5.97;2.80;;;;;;;;;;4973110;28;20046;-72
2023/11/18 11:37:25;;;;;;;9.13;2.67;;;;;;;;;;4993859;28;20141;-71
2023/11/18 11:39:55;;;;;;;6.97;3.35;;;;;;;;;;5014055;28;20051;-71
2023/11/18 11:42:23;;;;;;;13.68;3.22;;;;;;;;;;4988392;28;20065;-70
2023/11/18 11:44:53;;;;;;;8.23;3.13;;;;;;;;;;4973138;28;20057;-73
2023/11/18 11:47:23;;;;;;;9.93;2.65;;;;;;;;;;4979016;28;20046;-69
2023/11/18 11:49:56;;;;;;;6.85;3.03;;;;;;;;;;4978577;28;20057;-71
2023/11/18 11:52:29;;;;;;;8.15;3.30;;;;;;;;;;4989750;28;20054;-68
2023/11/18 11:55:05;;;;;;;9.65;3.75;;;;;;;;;;4982462;28;20050;-69
2023/11/18 11:57:35;;;;;;;7.72;3.50;;;;;;;;;;4993118;28;20050;-71
2023/11/18 12:00:16;;;;;;;6.65;2.88;;;;;;;;;;4988254;28;20053;-69
2023/11/18 12:02:49;;;;;;;7.20;2.70;;;;;;;;;;4997941;28;20081;-69
2023/11/18 12:05:24;;;;;;;8.48;2.58;;;;;;;;;;4979267;28;20146;-69
2023/11/18 12:07:54;;;;;;;9.45;2.92;;;;;;;;;;4976497;28;20053;-70
2023/11/18 12:10:22;;;;;;;7.63;2.95;;;;;;;;;;4967354;28;20085;-70
2023/11/18 12:12:52;;;;;;;6.45;2.65;;;;;;;;;;4985266;28;20062;-69
2023/11/18 12:15:53;;;;;;;4.68;1.50;;;;;;;;;;5014366;28;20129;-70
2023/11/18 12:18:21;;;;;;;7.45;2.45;;;;;;;;;;4975250;28;20073;-71
2023/11/18 12:20:53;;;;;;;7.47;2.17;;;;;;;;;;4987930;28;20054;-69
2023/11/18 12:23:24;;;;;;;8.05;2.42;;;;;;;;;;4989582;28;20050;-70
2023/11/18 12:25:55;;;;;;;5.13;1.88;;;;;;;;;;4977901;28;20055;-71
2023/11/18 12:28:27;;;;;;;5.90;2.05;;;;;;;;;;4989362;28;20064;-70
2023/11/18 12:31:04;;;;;;;9.32;2.13;;;;;;;;;;5007860;28;20052;-70
2023/11/18 12:34:08;;;;;;;6.07;2.65;;;;;;;;;;4976841;28;20401;-71
2023/11/18 12:37:10;;;;;;;7.00;2.35;;;;;;;;;;4991241;28;20080;-71
2023/11/18 12:40:24;;;;;;;12.77;4.68;;;;;;;;;;4980011;28;20061;-71
2023/11/18 12:43:06;;;;;;;7.82;1.83;;;;;;;;;;4948603;28;20077;-70
2023/11/18 12:45:45;;;;;;;4.65;1.60;;;;;;;;;;4985829;28;20062;-71
2023/11/18 12:48:16;;;;;;;4.78;1.60;;;;;;;;;;4992291;28;20086;-71
2023/11/18 12:50:45;;;;;;;4.30;1.67;;;;;;;;;;5019057;28;20288;-73
2023/11/18 12:53:14;;;;;;;4.93;1.90;;;;;;;;;;5000285;28;20054;-73
2023/11/18 12:55:42;;;;;;;5.03;1.80;;;;;;;;;;4960767;28;20054;-72
2023/11/18 12:58:13;;;;;;;4.75;2.00;;;;;;;;;;4958151;28;20088;-70
2023/11/18 13:00:45;;;;;;;3.78;1.33;;;;;;;;;;4960837;28;20055;-72
2023/11/18 13:03:15;;;;;;;6.80;1.70;;;;;;;;;;4962351;28;20142;-70
2023/11/18 13:05:43;;;;;;;5.22;1.63;;;;;;;;;;4924678;28;20050;-72
2023/11/18 13:08:10;;;;;;;4.55;1.25;;;;;;;;;;4978550;28;20472;-70
2023/11/18 13:10:38;;;;;;;4.60;1.80;;;;;;;;;;4969830;28;20050;-72
2023/11/18 13:13:08;;;;;;;4.45;1.85;;;;;;;;;;4965026;28;20062;-71
2023/11/18 13:15:37;;;;;;;5.47;2.00;;;;;;;;;;4963349;28;20052;-70
2023/11/18 13:18:06;;;;;;;;;;;;;;;;;;4979722;28;20062;-68
2023/11/18 13:20:35;;;;;;;5.28;1.60;;;;;;;;;;4983930;28;20996;-70
2023/11/18 13:23:08;;;;;;;6.60;2.47;;;;;;;;;;4998645;28;20081;-69
2023/11/18 13:25:35;;;;;;;4.25;1.80;;;;;;;;;;4970827;28;20054;-69
2023/11/18 13:28:09;;;;;;;4.75;1.77;;;;;;;;;;4963797;28;20043;-71
2023/11/18 13:30:38;;;;;;;4.10;1.70;;;;;;;;;;4959651;28;21004;-71
2023/11/18 13:33:07;;;;;;;3.95;1.65;;;;;;;;;;4976766;28;20050;-70
2023/11/18 13:35:34;;;;;;;;;;;;;;;;;;4956341;28;20043;-70
2023/11/18 13:38:04;;;;;;;7.57;1.88;;;;;;;;;;4961177;28;20215;-69
2023/11/18 13:40:44;;;;;;;7.05;1.70;;;;;;;;;;4957678;28;20086;-70
2023/11/18 13:43:11;;;;;;;3.78;1.25;;;;;;;;;;4958839;28;20142;-74
2023/11/18 13:45:39;;;;;;;2.60;1.13;;;;;;;;;;4977885;28;20053;-73
2023/11/18 13:48:08;;;;;;;5.30;1.40;;;;;;;;;;4999174;28;20061;-73
2023/11/18 13:50:37;;;;;;;3.85;1.35;;;;;;;;;;4994131;28;20047;-72
2023/11/18 13:53:05;;;;;;;2.55;1.15;;;;;;;;;;5007130;28;20064;-69
2023/11/18 13:55:32;;;;;;;3.10;1.20;;;;;;;;;;4993410;28;20050;-71
2023/11/18 13:58:00;;;;;;;5.30;1.58;;;;;;;;;;4981838;28;20195;-71
2023/11/18 14:00:28;;;;;;;3.53;1.38;;;;;;;;;;4977315;28;20141;-71
2023/11/18 14:02:58;;;;;;;2.70;1.27;;;;;;;;;;4997315;28;20054;-70
2023/11/18 14:05:28;;;;;;;3.40;1.38;;;;;;;;;;4976746;28;20060;-70
2023/11/18 14:07:59;;;;;;;3.20;1.38;;;;;;;;;;5017857;28;20054;-72
2023/11/18 14:10:26;;;;;;;4.68;1.35;;;;;;;;;;4973067;28;20047;-70
2023/11/18 14:13:02;;;;;;;4.22;1.27;;;;;;;;;;4992652;28;20054;-72
2023/11/18 14:15:29;;;;;;;1.85;1.00;;;;;;;;;;4952327;28;20070;-72
2023/11/18 14:17:58;;;;;;;2.60;0.98;;;;;;;;;;4961288;28;20134;-72
2023/11/18 14:20:25;;;;;;;2.47;1.10;;;;;;;;;;4951919;28;20175;-71
2023/11/18 14:22:54;;;;;;;2.90;1.10;;;;;;;;;;4961402;28;20047;-69
2023/11/18 14:25:23;;;;;;;6.32;1.15;;;;;;;;;;4972331;28;20054;-71
2023/11/18 14:27:51;;;;;;;2.75;1.20;;;;;;;;;;4979753;28;20058;-70
2023/11/18 14:30:19;;;;;;;2.00;0.85;;;;;;;;;;4972499;28;20054;-74
2023/11/18 14:32:47;;;;;;;1.63;0.75;;;;;;;;;;5013929;28;20065;-73
2023/11/18 14:35:17;;;;;;;1.13;0.57;;;;;;;;;;4944631;28;20058;-74
2023/11/18 14:37:46;;;;;;;1.42;0.80;;;;;;;;;;4990393;28;20502;-71
2023/11/18 14:40:14;;;;;;;1.95;0.55;;;;;;;;;;4970428;28;20050;-74
2023/11/18 14:42:47;;;;;;;1.60;0.68;;;;;;;;;;4973618;28;20083;-74
2023/11/18 14:45:16;;;;;;;1.08;0.80;;;;;;;;;;4960934;28;20096;-71
2023/11/18 14:47:45;;;;;;;1.33;0.80;;;;;;;;;;4958427;28;20058;-71